createdAt,value
2019-05-19T00:00:53.292Z,21.72
2019-05-19T00:03:26.112Z,21.68
2019-05-19T00:05:59.974Z,20.31
2019-05-19T00:08:32.776Z,19.35
2019-05-19T00:11:05.727Z,18.69
2019-05-19T00:13:38.594Z,18.23
2019-05-19T00:16:12.375Z,17.82
2019-05-19T00:18:45.229Z,17.46
2019-05-19T00:21:18.153Z,17.18
2019-05-19T00:23:51.417Z,16.90
2019-05-19T00:26:24.556Z,16.69
2019-05-19T00:28:57.438Z,16.45
2019-05-19T00:31:30.271Z,18.41
2019-05-19T00:34:03.263Z,21.54
2019-05-19T00:36:36.454Z,21.50
2019-05-19T00:39:09.361Z,20.14
2019-05-19T00:41:42.167Z,19.17
2019-05-19T00:44:15.266Z,18.55
2019-05-19T00:46:49.371Z,18.04
2019-05-19T00:49:22.234Z,17.65
2019-05-19T00:51:55.037Z,17.35
2019-05-19T00:54:28.062Z,17.08
2019-05-19T00:57:02.158Z,16.84
2019-05-19T00:59:36.769Z,16.63
2019-05-19T01:02:09.579Z,16.42
2019-05-19T01:04:42.733Z,18.62
2019-05-19T01:07:15.618Z,21.74
2019-05-19T01:09:48.528Z,21.61
2019-05-19T01:12:21.438Z,20.24
2019-05-19T01:14:54.326Z,19.28
2019-05-19T01:17:28.102Z,18.62
2019-05-19T01:20:01.028Z,18.14
2019-05-19T01:22:35.136Z,17.76
2019-05-19T01:25:08.671Z,17.43
2019-05-19T01:27:41.581Z,17.15
2019-05-19T01:30:17.073Z,16.89
2019-05-19T01:32:49.880Z,16.62
2019-05-19T01:35:22.713Z,18.50
2019-05-19T01:37:55.590Z,21.61
2019-05-19T01:40:28.438Z,21.71
2019-05-19T01:43:01.310Z,20.30
2019-05-19T01:45:34.263Z,19.27
2019-05-19T01:48:07.061Z,18.61
2019-05-19T01:50:40.294Z,18.13
2019-05-19T01:53:13.127Z,17.73
2019-05-19T01:55:47.038Z,17.41
2019-05-19T01:58:20.126Z,17.11
2019-05-19T02:00:52.935Z,16.86
2019-05-19T02:03:25.814Z,16.59
2019-05-19T02:06:00.099Z,19.04
2019-05-19T02:08:33.018Z,21.96
2019-05-19T02:11:05.852Z,21.03
2019-05-19T02:13:38.653Z,19.70
2019-05-19T02:16:11.542Z,18.80
2019-05-19T02:18:44.335Z,18.18
2019-05-19T02:21:17.296Z,17.68
2019-05-19T02:23:50.138Z,17.31
2019-05-19T02:26:23.123Z,17.00
2019-05-19T02:28:55.954Z,19.45
2019-05-19T02:31:28.789Z,21.58
2019-05-19T02:34:02.510Z,20.50
2019-05-19T02:36:35.329Z,19.34
2019-05-19T02:39:08.898Z,18.54
2019-05-19T02:41:44.077Z,17.94
2019-05-19T02:44:19.026Z,17.53
2019-05-19T02:46:55.121Z,17.19
2019-05-19T02:49:30.761Z,16.91
2019-05-19T02:52:05.599Z,19.30
2019-05-19T02:54:38.864Z,21.88
2019-05-19T02:57:11.989Z,20.85
2019-05-19T02:59:46.390Z,19.62
2019-05-19T03:02:19.227Z,18.71
2019-05-19T03:04:52.156Z,18.10
2019-05-19T03:07:25.037Z,17.56
2019-05-19T03:09:57.956Z,17.15
2019-05-19T03:12:30.758Z,19.34
2019-05-19T03:15:03.654Z,22.22
2019-05-19T03:17:36.843Z,21.30
2019-05-19T03:20:09.799Z,19.99
2019-05-19T03:22:42.603Z,19.04
2019-05-19T03:25:15.470Z,18.41
2019-05-19T03:27:48.288Z,17.83
2019-05-19T03:30:39.056Z,17.43
2019-05-19T03:33:12.705Z,19.73
2019-05-19T03:35:45.748Z,22.24
2019-05-19T03:38:18.954Z,21.24
2019-05-19T03:40:51.829Z,19.95
2019-05-19T03:43:24.656Z,19.06
2019-05-19T03:45:57.467Z,18.41
2019-05-19T03:48:30.305Z,17.86
2019-05-19T03:51:03.133Z,17.42
2019-05-19T03:53:36.462Z,19.49
2019-05-19T03:56:09.275Z,22.50
2019-05-19T03:58:42.132Z,22.05
2019-05-19T04:01:14.952Z,20.65
2019-05-19T04:03:47.795Z,19.65
2019-05-19T04:06:20.633Z,19.03
2019-05-19T04:08:53.453Z,18.55
2019-05-19T04:11:26.293Z,18.24
2019-05-19T04:13:59.155Z,20.20
2019-05-19T04:16:32.044Z,22.46
2019-05-19T04:19:04.970Z,21.51
2019-05-19T04:21:48.344Z,20.48
2019-05-19T04:24:12.341Z,19.80
2019-05-19T04:26:45.148Z,19.30
2019-05-19T04:29:18.001Z,18.84
2019-05-19T04:31:50.872Z,18.47
2019-05-19T04:34:23.757Z,20.44
2019-05-19T04:36:56.589Z,22.81
2019-05-19T04:39:29.604Z,21.82
2019-05-19T04:42:02.519Z,20.70
2019-05-19T04:44:35.478Z,19.89
2019-05-19T04:47:08.387Z,19.33
2019-05-19T04:49:42.753Z,18.91
2019-05-19T04:52:17.150Z,18.59
2019-05-19T04:54:50.538Z,20.83
2019-05-19T04:57:23.539Z,23.58
2019-05-19T04:59:56.353Z,22.64
2019-05-19T05:02:29.145Z,21.44
2019-05-19T05:05:02.060Z,20.56
2019-05-19T05:07:35.016Z,19.93
2019-05-19T05:10:07.852Z,19.45
2019-05-19T05:12:40.720Z,20.30
2019-05-19T05:15:13.516Z,23.45
2019-05-19T05:17:46.367Z,22.95
2019-05-19T05:20:19.277Z,21.71
2019-05-19T05:22:52.068Z,20.78
2019-05-19T05:25:24.956Z,20.14
2019-05-19T05:27:57.749Z,19.62
2019-05-19T05:30:30.575Z,21.47
2019-05-19T05:33:03.385Z,23.68
2019-05-19T05:35:36.233Z,22.72
2019-05-19T05:38:09.080Z,21.57
2019-05-19T05:40:41.946Z,20.76
2019-05-19T05:43:14.760Z,20.23
2019-05-19T05:45:47.585Z,19.83
2019-05-19T05:48:21.434Z,22.27
2019-05-19T05:50:54.277Z,24.16
2019-05-19T05:53:27.179Z,23.01
2019-05-19T05:56:00.021Z,21.91
2019-05-19T05:58:32.906Z,21.10
2019-05-19T06:01:05.919Z,20.59
2019-05-19T06:03:38.779Z,20.20
2019-05-19T06:06:11.615Z,22.24
2019-05-19T06:08:44.539Z,24.71
2019-05-19T06:11:17.431Z,23.80
2019-05-19T06:13:50.361Z,22.53
2019-05-19T06:16:23.211Z,21.68
2019-05-19T06:18:56.904Z,21.06
2019-05-19T06:21:30.253Z,22.92
2019-05-19T06:24:03.201Z,25.17
2019-05-19T06:26:36.030Z,24.08
2019-05-19T06:29:09.020Z,22.95
2019-05-19T06:31:42.077Z,22.23
2019-05-19T06:34:14.889Z,21.85
2019-05-19T06:36:47.710Z,21.61
2019-05-19T06:39:20.721Z,23.77
2019-05-19T06:41:53.895Z,24.84
2019-05-19T06:44:26.881Z,23.76
2019-05-19T06:46:59.791Z,22.91
2019-05-19T06:49:32.860Z,22.29
2019-05-19T06:52:05.880Z,21.86
2019-05-19T06:54:38.883Z,21.50
2019-05-19T06:57:11.873Z,23.29
2019-05-19T06:59:44.850Z,26.17
2019-05-19T07:02:17.762Z,25.56
2019-05-19T07:04:50.608Z,24.01
2019-05-19T07:07:23.615Z,22.99
2019-05-19T07:09:58.978Z,22.20
2019-05-19T07:12:32.425Z,22.01
2019-05-19T07:21:49.441Z,21.91
2019-05-19T07:24:22.716Z,23.80
2019-05-19T07:26:56.059Z,26.41
2019-05-19T07:29:29.380Z,25.96
2019-05-19T07:32:02.440Z,24.16
2019-05-19T07:34:35.380Z,22.88
2019-05-19T07:37:11.286Z,22.01
2019-05-19T07:39:44.146Z,23.50
2019-05-19T07:42:17.102Z,26.08
2019-05-19T07:44:49.984Z,24.98
2019-05-19T07:47:22.985Z,23.57
2019-05-19T07:49:55.864Z,22.43
2019-05-19T07:52:28.891Z,21.58
2019-05-19T07:55:01.803Z,23.11
2019-05-19T07:57:34.671Z,25.83
2019-05-19T08:00:09.494Z,25.46
2019-05-19T08:02:42.413Z,23.80
2019-05-19T15:03:47.762Z,24.23
2019-05-19T15:06:20.952Z,24.21
2019-05-19T15:08:53.812Z,24.18
2019-05-19T15:11:26.599Z,24.15
2019-05-19T15:13:59.508Z,24.18
2019-05-19T15:16:32.414Z,24.18
2019-05-19T15:19:05.290Z,24.21
2019-05-19T15:21:38.085Z,24.19
2019-05-19T15:24:13.762Z,24.22
2019-05-19T15:26:46.664Z,24.23
2019-05-19T15:29:19.581Z,24.22
2019-05-19T15:31:52.401Z,24.21
2019-05-19T15:34:25.241Z,24.21
2019-05-19T15:36:58.088Z,24.21
2019-05-19T15:39:30.984Z,24.19
2019-05-19T15:42:03.855Z,24.19
2019-05-19T15:44:36.777Z,24.15
2019-05-19T15:47:10.680Z,24.12
2019-05-19T15:49:43.487Z,24.08
2019-05-19T15:52:16.314Z,24.02
2019-05-19T15:54:49.120Z,24.00
2019-05-19T15:57:22.168Z,23.91
2019-05-19T15:59:55.103Z,23.84
2019-05-19T16:02:27.918Z,23.76
2019-05-19T16:05:00.770Z,23.67
2019-05-19T16:07:33.524Z,23.60
2019-05-19T16:10:06.691Z,23.52
2019-05-19T16:12:39.568Z,23.40
2019-05-19T16:15:13.283Z,23.33
2019-05-19T16:17:46.196Z,23.21
2019-05-19T16:20:19.466Z,23.14
2019-05-19T16:22:56.509Z,23.05
2019-05-19T16:25:29.380Z,22.92
2019-05-19T16:28:02.297Z,22.81
2019-05-19T16:30:36.287Z,22.71
2019-05-19T16:33:09.178Z,22.64
2019-05-19T16:35:42.065Z,22.54
2019-05-19T16:38:15.238Z,22.46
2019-05-19T16:40:48.239Z,22.37
2019-05-19T16:43:21.174Z,22.29
2019-05-19T16:45:54.141Z,22.19
2019-05-19T16:48:27.056Z,24.46
2019-05-19T16:51:04.357Z,25.14
2019-05-19T16:53:37.845Z,24.34
2019-05-19T16:56:11.024Z,23.73
2019-05-19T16:58:45.580Z,23.39
2019-05-19T17:01:20.074Z,23.16
2019-05-19T17:03:53.307Z,22.97
2019-05-19T17:06:26.512Z,22.80
2019-05-19T17:08:59.388Z,22.66
2019-05-19T17:11:35.463Z,22.51
2019-05-19T17:14:08.395Z,22.36
2019-05-19T17:16:41.542Z,22.27
2019-05-19T17:19:14.474Z,22.15
2019-05-19T17:21:47.516Z,22.06
2019-05-19T17:24:20.439Z,21.94
2019-05-19T17:26:53.297Z,24.02
2019-05-19T17:29:27.818Z,25.03
2019-05-19T17:32:05.944Z,24.14
2019-05-19T17:34:35.192Z,23.49
2019-05-19T17:37:08.102Z,23.09
2019-05-19T17:39:40.905Z,22.82
2019-05-19T17:42:13.990Z,22.64
2019-05-19T17:44:47.093Z,22.46
2019-05-19T17:47:20.019Z,22.27
2019-05-19T17:49:52.813Z,22.12
2019-05-19T17:52:25.701Z,21.98
2019-05-19T17:54:58.623Z,21.84
2019-05-19T17:57:32.217Z,21.71
2019-05-19T18:00:06.212Z,21.58
2019-05-19T18:02:39.247Z,23.72
2019-05-19T18:05:12.325Z,24.87
2019-05-19T18:07:45.197Z,24.02
2019-05-19T18:10:18.119Z,23.36
2019-05-19T18:12:51.070Z,22.88
2019-05-19T18:15:23.884Z,22.56
2019-05-19T18:17:58.436Z,22.30
2019-05-19T18:20:31.385Z,22.06
2019-05-19T18:23:04.308Z,21.89
2019-05-19T18:25:37.279Z,21.72
2019-05-19T18:28:10.624Z,21.54
2019-05-19T18:30:43.654Z,21.40
2019-05-19T18:33:18.215Z,21.24
2019-05-19T18:35:51.067Z,21.09
2019-05-19T18:38:24.073Z,20.93
2019-05-19T18:40:56.877Z,20.79
2019-05-19T18:43:29.816Z,20.70
2019-05-19T18:46:02.725Z,20.58
2019-05-19T18:48:38.795Z,20.44
2019-05-19T18:51:11.801Z,20.33
2019-05-19T18:53:46.685Z,20.21
2019-05-19T18:56:22.907Z,22.78
2019-05-19T18:58:56.028Z,23.84
2019-05-19T19:01:33.458Z,22.88
2019-05-19T19:04:08.167Z,22.09
2019-05-19T19:06:41.241Z,21.60
2019-05-19T19:09:14.294Z,21.26
2019-05-19T19:11:47.269Z,20.99
2019-05-19T19:14:20.426Z,20.74
2019-05-19T19:16:53.355Z,22.63
2019-05-19T19:19:29.599Z,24.07
2019-05-19T19:22:04.038Z,23.08
2019-05-19T19:24:38.669Z,22.30
2019-05-19T19:27:11.679Z,21.75
2019-05-19T19:29:44.715Z,21.38
2019-05-19T19:32:17.600Z,21.05
2019-05-19T19:34:50.494Z,20.79
2019-05-19T19:37:23.420Z,20.56
2019-05-19T19:39:56.321Z,20.37
2019-05-19T19:42:29.262Z,20.21
2019-05-19T19:45:02.159Z,22.85
2019-05-19T19:47:36.490Z,23.81
2019-05-19T19:50:09.600Z,22.74
2019-05-19T19:52:42.703Z,21.91
2019-05-19T19:55:15.729Z,21.38
2019-05-19T19:57:48.746Z,21.00
2019-05-19T20:00:42.412Z,20.68
2019-05-19T20:03:16.390Z,20.40
2019-05-19T20:05:50.932Z,20.13
2019-05-19T20:08:23.857Z,19.93
2019-05-19T20:10:56.742Z,21.92
2019-05-19T20:13:29.675Z,24.12
2019-05-19T20:16:02.580Z,23.22
2019-05-19T20:18:35.348Z,22.16
2019-05-19T20:21:08.214Z,21.51
2019-05-19T20:23:41.249Z,21.05
2019-05-19T20:26:14.132Z,20.71
2019-05-19T20:28:47.081Z,20.41
2019-05-19T20:31:19.916Z,20.16
2019-05-19T20:33:52.854Z,19.93
2019-05-19T20:36:26.039Z,19.72
2019-05-19T20:38:58.927Z,19.52
2019-05-19T20:41:31.812Z,21.68
2019-05-19T20:44:05.241Z,24.23
2019-05-19T20:46:38.075Z,23.54
2019-05-19T20:49:11.026Z,22.40
2019-05-19T20:51:44.817Z,21.62
2019-05-19T20:54:17.620Z,21.09
2019-05-19T20:56:50.837Z,20.71
2019-05-19T20:59:24.643Z,20.41
2019-05-19T21:01:57.493Z,20.10
2019-05-19T21:04:30.312Z,19.86
2019-05-19T21:07:03.229Z,19.64
2019-05-19T21:09:36.207Z,19.42
2019-05-19T21:12:09.042Z,21.30
2019-05-19T21:14:42.971Z,24.18
2019-05-19T21:17:15.887Z,23.56
2019-05-19T21:19:50.383Z,22.39
2019-05-19T21:22:23.204Z,21.57
2019-05-19T21:24:56.066Z,21.03
2019-05-19T21:27:29.829Z,20.62
2019-05-19T21:30:02.665Z,20.27
2019-05-19T21:32:35.538Z,19.99
2019-05-19T21:35:09.008Z,19.73
2019-05-19T21:37:41.849Z,19.49
2019-05-19T21:40:14.796Z,19.28
2019-05-19T21:42:47.608Z,21.48
2019-05-19T21:45:20.582Z,24.23
2019-05-19T21:47:53.421Z,24.08
2019-05-19T21:50:26.256Z,22.75
2019-05-19T21:52:59.170Z,21.78
2019-05-19T21:55:31.971Z,21.14
2019-05-19T21:58:04.954Z,20.62
2019-05-19T22:00:37.838Z,20.25
2019-05-19T22:03:10.859Z,19.92
2019-05-19T22:05:52.845Z,19.58
2019-05-19T22:08:18.693Z,19.33
2019-05-19T22:10:51.488Z,19.03
2019-05-19T22:13:24.366Z,20.76
2019-05-19T22:16:11.600Z,23.67
2019-05-19T22:18:31.973Z,23.09
2019-05-19T22:21:04.836Z,21.86
2019-05-19T22:23:37.672Z,21.03
2019-05-19T22:26:10.577Z,20.45
2019-05-19T22:28:43.410Z,20.03
2019-05-19T22:31:16.409Z,19.65
2019-05-19T22:33:49.314Z,19.30
2019-05-19T22:36:22.122Z,19.03
2019-05-19T22:38:55.000Z,18.73
2019-05-19T22:41:27.812Z,20.74
2019-05-19T22:44:00.887Z,23.26
2019-05-19T22:46:34.760Z,22.61
2019-05-19T22:49:07.641Z,21.36
2019-05-19T22:51:40.500Z,20.52
2019-05-19T22:54:13.339Z,19.93
2019-05-19T22:56:46.137Z,19.47
2019-05-19T22:59:20.449Z,19.13
2019-05-19T23:01:53.487Z,18.82
2019-05-19T23:04:26.493Z,18.56
2019-05-19T23:06:59.424Z,20.62
2019-05-19T23:09:32.420Z,23.32
2019-05-19T23:12:05.213Z,23.15
2019-05-19T23:14:39.135Z,21.81
2019-05-19T23:17:11.939Z,20.88
2019-05-19T23:19:45.032Z,20.17
2019-05-19T23:22:17.848Z,19.69
2019-05-19T23:24:51.957Z,19.30
2019-05-19T23:27:24.847Z,18.93
2019-05-19T23:29:57.774Z,18.80
2019-05-19T23:32:30.640Z,21.40
2019-05-19T23:35:03.493Z,22.11
2019-05-19T23:37:36.387Z,21.03
2019-05-19T23:40:10.498Z,20.14
2019-05-19T23:42:43.383Z,19.48
2019-05-19T23:45:16.759Z,19.03
2019-05-19T23:47:49.589Z,18.66
2019-05-19T23:50:22.383Z,20.54
2019-05-19T23:52:55.214Z,23.14
2019-05-19T23:55:27.995Z,22.53
2019-05-19T23:58:00.929Z,21.27
